createdAt,value
2023-01-10T00:01:21.484Z,100867.16
2023-01-10T00:02:53.428Z,100863.72
2023-01-10T00:04:29.854Z,100867.22
2023-01-10T00:06:01.567Z,100865.38
2023-01-10T00:07:33.182Z,100875.78
2023-01-10T00:09:06.252Z,100880.88
2023-01-10T00:10:37.892Z,100885.16
2023-01-10T00:12:27.935Z,100892.94
2023-01-10T00:13:59.616Z,100887.63
2023-01-10T00:15:32.468Z,100905.00
2023-01-10T00:17:04.800Z,100910.19
2023-01-10T00:18:36.439Z,100908.41
2023-01-10T00:20:10.240Z,100911.91
2023-01-10T00:21:41.909Z,100908.41
2023-01-10T00:23:13.874Z,100915.44
2023-01-10T00:24:46.877Z,100924.22
2023-01-10T00:26:18.568Z,100925.09
2023-01-10T00:28:19.544Z,100931.09
2023-01-10T00:29:52.346Z,100926.59
2023-01-10T00:31:24.057Z,100923.97
2023-01-10T00:32:56.698Z,100925.78
2023-01-10T00:34:28.454Z,100937.13
2023-01-10T00:36:00.683Z,100938.03
2023-01-10T00:37:32.376Z,100940.66
2023-01-10T00:39:04.358Z,100944.22
2023-01-10T00:40:37.330Z,100949.50
2023-01-10T00:42:28.976Z,100945.09
2023-01-10T00:44:00.624Z,100953.75
2023-01-10T00:45:32.308Z,100959.88
2023-01-10T00:47:04.087Z,100955.47
2023-01-10T00:48:36.001Z,100962.38
2023-01-10T00:50:08.837Z,100969.28
2023-01-10T00:51:40.481Z,100971.97
2023-01-10T00:53:12.873Z,100970.28
2023-01-10T00:54:44.519Z,100976.50
2023-01-10T00:56:17.511Z,100977.47
2023-01-10T00:57:49.131Z,100984.53
2023-01-10T00:59:21.024Z,100995.94
2023-01-10T01:00:52.692Z,100993.34
2023-01-10T01:02:24.530Z,100999.50
2023-01-10T01:03:56.362Z,101009.09
2023-01-10T01:05:27.974Z,101003.88
2023-01-10T01:07:00.194Z,101006.50
2023-01-10T01:08:32.163Z,101008.25
2023-01-10T01:10:22.750Z,101007.41
2023-01-10T01:11:56.399Z,101009.16
2023-01-10T01:13:28.292Z,101013.56
2023-01-10T01:14:59.959Z,101012.69
2023-01-10T01:16:31.675Z,101017.06
2023-01-10T01:18:04.162Z,101018.78
2023-01-10T01:19:35.883Z,101029.25
2023-01-10T01:21:08.443Z,101034.50
2023-01-10T01:22:40.593Z,101036.22
2023-01-10T01:24:12.328Z,101034.41
2023-01-10T01:25:43.971Z,101029.09
2023-01-10T01:27:17.041Z,101035.09
2023-01-10T01:28:48.717Z,101030.72
2023-01-10T01:30:20.562Z,101046.41
2023-01-10T01:31:52.228Z,101040.28
2023-01-10T01:33:24.326Z,101054.28
2023-01-10T01:34:56.232Z,101064.75
2023-01-10T01:36:27.940Z,101062.06
2023-01-10T01:37:59.578Z,101055.91
2023-01-10T01:39:31.224Z,101059.38
2023-01-10T01:41:03.037Z,101071.53
2023-01-10T01:42:36.789Z,101066.19
2023-01-10T01:44:16.417Z,101069.50
2023-01-10T01:45:48.339Z,101072.88
2023-01-10T01:47:26.684Z,101074.56
2023-01-10T01:48:58.523Z,101078.91
2023-01-10T01:50:34.826Z,101082.41
2023-01-10T01:52:12.458Z,101078.97
2023-01-10T01:53:48.476Z,101087.75
2023-01-10T01:55:20.552Z,101095.72
2023-01-10T01:56:56.038Z,101089.69
2023-01-10T01:58:36.843Z,101083.59
2023-01-10T02:00:14.814Z,101093.28
2023-01-10T02:01:50.466Z,101096.78
2023-01-10T02:03:22.378Z,101096.00
2023-01-10T02:04:59.128Z,101107.47
2023-01-10T02:06:30.866Z,101104.88
2023-01-10T02:08:02.767Z,101103.09
2023-01-10T02:09:40.473Z,101098.81
2023-01-10T02:11:12.306Z,101104.13
2023-01-10T02:12:46.486Z,101111.16
2023-01-10T02:14:20.427Z,101117.34
2023-01-10T02:15:52.246Z,101101.81
2023-01-10T02:17:23.914Z,101114.13
2023-01-10T02:18:55.603Z,101111.56
2023-01-10T02:20:30.962Z,101118.56
2023-01-10T02:22:46.271Z,101123.88
2023-01-10T02:24:46.561Z,101130.94
2023-01-10T02:26:46.812Z,101124.88
2023-01-10T02:28:51.039Z,101130.16
2023-01-10T02:30:53.884Z,101133.75
2023-01-10T02:32:45.870Z,101138.22
2023-01-10T02:34:32.919Z,101126.91
2023-01-10T02:36:17.855Z,101126.91
2023-01-10T02:37:59.735Z,101127.81
2023-01-10T02:39:39.427Z,101127.03
2023-01-10T02:41:22.059Z,101127.94
2023-01-10T02:43:04.140Z,101125.38
2023-01-10T02:44:42.829Z,101127.22
2023-01-10T02:46:17.959Z,101131.66
2023-01-10T02:47:50.975Z,101120.38
2023-01-10T02:49:22.701Z,101124.84
2023-01-10T02:51:00.620Z,101115.34
2023-01-10T02:52:32.330Z,101118.88
2023-01-10T02:54:08.313Z,101119.75
2023-01-10T02:55:55.493Z,101121.53
2023-01-10T02:57:43.517Z,101114.56
2023-01-10T02:59:36.858Z,101124.22
2023-01-10T03:01:18.180Z,101128.59
2023-01-10T03:03:15.259Z,101139.94
2023-01-10T03:04:55.604Z,101133.03
2023-01-10T03:06:35.126Z,101140.88
2023-01-10T03:08:18.415Z,101146.13
2023-01-10T03:09:56.622Z,101148.75
2023-01-10T03:11:40.916Z,101148.84
2023-01-10T03:13:20.041Z,101152.34
2023-01-10T03:14:55.821Z,101154.94
2023-01-10T03:16:30.939Z,101161.91
2023-01-10T03:18:06.742Z,101163.69
2023-01-10T03:19:44.634Z,101165.41
2023-01-10T03:21:19.119Z,101166.25
2023-01-10T03:22:52.892Z,101164.50
2023-01-10T03:24:30.097Z,101161.03
2023-01-10T03:26:04.990Z,101169.72
2023-01-10T03:27:51.899Z,101172.41
2023-01-10T03:29:29.363Z,101173.28
2023-01-10T03:31:08.635Z,101168.94
2023-01-10T03:32:41.565Z,101172.41
2023-01-10T03:34:14.342Z,101173.28
2023-01-10T03:36:00.796Z,101176.75
2023-01-10T03:37:46.084Z,101175.06
2023-01-10T03:39:25.323Z,101172.47
2023-01-10T03:41:02.400Z,101181.16
2023-01-10T03:42:58.312Z,101175.97
2023-01-10T03:44:43.984Z,101182.09
2023-01-10T03:46:25.975Z,101188.25
2023-01-10T03:48:01.303Z,101192.53
2023-01-10T03:49:35.590Z,101193.44
2023-01-10T03:51:09.940Z,101195.22
2023-01-10T03:52:42.761Z,101196.09
2023-01-10T03:54:16.655Z,101198.72
2023-01-10T03:55:48.843Z,101206.53
2023-01-10T03:57:22.343Z,101202.19
2023-01-10T03:58:54.016Z,101209.13
2023-01-10T04:00:26.201Z,101214.31
2023-01-10T04:01:57.850Z,101225.59
2023-01-10T04:03:29.477Z,101228.25
2023-01-10T04:05:01.144Z,101228.22
2023-01-10T04:06:34.466Z,101230.81
2023-01-10T04:08:06.206Z,101234.31
2023-01-10T04:09:38.147Z,101231.72
2023-01-10T04:11:09.740Z,101244.84
2023-01-10T04:12:41.459Z,101240.50
2023-01-10T04:14:13.160Z,101242.19
2023-01-10T04:15:44.758Z,101245.66
2023-01-10T04:17:17.561Z,101243.03
2023-01-10T04:18:49.191Z,101249.16
2023-01-10T04:20:20.923Z,101243.13
2023-01-10T04:21:54.000Z,101253.56
2023-01-10T04:23:25.651Z,101263.13
2023-01-10T04:24:57.293Z,101252.63
2023-01-10T04:26:29.006Z,101253.50
2023-01-10T04:28:00.608Z,101260.44
2023-01-10T04:29:32.378Z,101261.34
2023-01-10T04:31:04.191Z,101261.31
2023-01-10T04:32:35.929Z,101261.28
2023-01-10T04:34:07.873Z,101264.72
2023-01-10T04:35:39.604Z,101252.53
2023-01-10T04:37:12.627Z,101258.63
2023-01-10T04:38:44.304Z,101254.19
2023-01-10T04:40:19.398Z,101250.69
2023-01-10T04:41:51.030Z,101256.78
2023-01-10T04:43:23.416Z,101253.25
2023-01-10T04:44:55.060Z,101254.09
2023-01-10T04:46:26.757Z,101255.72
2023-01-10T04:48:00.082Z,101245.19
2023-01-10T04:49:31.704Z,101253.03
2023-01-10T04:51:03.540Z,101244.28
2023-01-10T04:52:36.505Z,101245.97
2023-01-10T04:54:08.151Z,101244.19
2023-01-10T04:55:39.840Z,101260.75
2023-01-10T04:57:11.633Z,101259.91
2023-01-10T04:58:43.279Z,101268.63
2023-01-10T05:00:15.275Z,101269.56
2023-01-10T05:01:46.969Z,101275.69
2023-01-10T05:03:20.266Z,101280.09
2023-01-10T05:04:52.003Z,101275.78
2023-01-10T05:06:24.608Z,101274.09
2023-01-10T05:07:57.578Z,101281.09
2023-01-10T05:09:29.203Z,101283.69
2023-01-10T05:11:01.199Z,101284.59
2023-01-10T05:12:32.976Z,101283.75
2023-01-10T05:14:04.743Z,101289.03
2023-01-10T05:15:36.404Z,101290.84
2023-01-10T05:17:08.049Z,101289.13
2023-01-10T05:18:39.674Z,101292.66
2023-01-10T05:20:13.430Z,101289.19
2023-01-10T05:21:45.042Z,101291.84
2023-01-10T05:23:18.386Z,101299.75
2023-01-10T05:24:50.208Z,101294.56
2023-01-10T05:26:23.512Z,101292.00
2023-01-10T05:27:55.188Z,101299.88
2023-01-10T05:29:26.846Z,101298.16
2023-01-10T05:30:58.856Z,101306.03
2023-01-10T05:32:30.585Z,101299.06
2023-01-10T05:34:02.432Z,101300.81
2023-01-10T05:35:34.796Z,101307.75
2023-01-10T05:37:06.445Z,101311.22
2023-01-10T05:38:39.889Z,101312.94
2023-01-10T05:40:12.446Z,101323.34
2023-01-10T05:41:44.080Z,101320.75
2023-01-10T05:43:15.683Z,101331.25
2023-01-10T05:44:47.478Z,101331.25
2023-01-10T05:46:19.114Z,101323.44
2023-01-10T05:47:50.785Z,101322.59
2023-01-10T05:49:22.479Z,101313.88
2023-01-10T05:50:54.587Z,101313.91
2023-01-10T05:52:26.226Z,101310.47
2023-01-10T05:53:59.307Z,101307.88
2023-01-10T05:55:30.995Z,101315.72
2023-01-10T05:57:02.635Z,101316.63
2023-01-10T05:58:34.270Z,101325.31
2023-01-10T06:00:07.266Z,101329.69
2023-01-10T06:01:43.110Z,101334.94
2023-01-10T06:03:14.964Z,101333.19
2023-01-10T06:04:46.642Z,101341.91
2023-01-10T06:06:18.380Z,101337.56
2023-01-10T06:07:52.163Z,101341.03
2023-01-10T06:09:25.167Z,101350.63
2023-01-10T06:10:56.873Z,101352.34
2023-01-10T06:12:28.903Z,101366.25
2023-01-10T06:14:00.595Z,101367.09
2023-01-10T06:15:33.298Z,101367.94
2023-01-10T06:17:10.013Z,101368.81
2023-01-10T06:18:41.687Z,101365.31
2023-01-10T06:20:13.523Z,101360.06
2023-01-10T06:21:45.278Z,101357.44
2023-01-10T06:23:17.022Z,101351.34
2023-01-10T06:24:49.985Z,101356.56
2023-01-10T06:26:21.652Z,101364.41
2023-01-10T06:27:53.382Z,101362.66
2023-01-10T06:29:25.064Z,101367.88
2023-01-10T06:30:56.709Z,101372.22
2023-01-10T06:32:28.425Z,101367.88
2023-01-10T06:34:00.124Z,101371.34
2023-01-10T06:35:32.740Z,101386.13
2023-01-10T06:37:04.362Z,101367.84
2023-01-10T06:38:36.081Z,101379.16
2023-01-10T06:40:10.696Z,101380.91
2023-01-10T06:41:42.906Z,101387.00
2023-01-10T06:43:14.613Z,101389.63
2023-01-10T06:44:46.248Z,101391.34
2023-01-10T06:46:21.546Z,101398.34
2023-01-10T06:47:53.285Z,101399.22
2023-01-10T06:49:24.955Z,101400.09
2023-01-10T06:50:56.605Z,101400.09
2023-01-10T06:52:28.429Z,101411.44
2023-01-10T06:54:00.214Z,101404.50
2023-01-10T06:55:33.455Z,101414.97
2023-01-10T06:57:05.800Z,101423.69
2023-01-10T06:58:40.753Z,101418.44
2023-01-10T07:00:13.364Z,101420.19
2023-01-10T07:01:45.145Z,101427.16
2023-01-10T07:03:16.960Z,101429.78
2023-01-10T07:04:49.159Z,101417.59
2023-01-10T07:06:21.232Z,101423.69
2023-01-10T07:07:52.908Z,101435.00
2023-01-10T07:09:24.608Z,101432.41
2023-01-10T07:11:00.393Z,101428.06
2023-01-10T07:12:32.187Z,101429.81
2023-01-10T07:14:04.124Z,101439.41
2023-01-10T07:15:36.100Z,101437.66
2023-01-10T07:17:07.691Z,101446.38
2023-01-10T07:18:40.693Z,101456.00
2023-01-10T07:20:12.659Z,101455.13
2023-01-10T07:21:44.464Z,101456.00
2023-01-10T07:23:16.085Z,101453.41
2023-01-10T07:24:47.800Z,101462.13
2023-01-10T07:26:20.876Z,101471.69
2023-01-10T07:27:55.289Z,101471.69
2023-01-10T07:29:27.015Z,101464.72
2023-01-10T07:30:59.473Z,101462.13
2023-01-10T07:32:31.073Z,101461.28
2023-01-10T07:34:02.842Z,101457.81
2023-01-10T07:35:34.598Z,101470.00
2023-01-10T07:37:06.375Z,101463.06
2023-01-10T07:38:38.686Z,101463.94
2023-01-10T07:40:11.843Z,101469.13
2023-01-10T07:41:47.181Z,101475.25
2023-01-10T07:43:20.389Z,101479.59
2023-01-10T07:44:52.108Z,101480.47
2023-01-10T07:46:23.871Z,101472.63
2023-01-10T07:47:59.058Z,101485.69
2023-01-10T07:49:30.716Z,101491.78
2023-01-10T07:51:03.385Z,101476.13
2023-01-10T07:52:35.178Z,101477.84
2023-01-10T07:54:06.815Z,101492.66
2023-01-10T07:55:39.800Z,101489.16
2023-01-10T07:57:12.922Z,101499.63
2023-01-10T07:58:46.315Z,101493.53
2023-01-10T08:00:19.055Z,101498.75
2023-01-10T08:01:53.118Z,101491.78
2023-01-10T08:03:25.042Z,101497.88
2023-01-10T08:04:56.879Z,101497.81
2023-01-10T08:06:28.577Z,101496.94
2023-01-10T08:08:04.749Z,101503.91
2023-01-10T08:09:36.389Z,101508.25
2023-01-10T08:11:08.255Z,101506.53
2023-01-10T08:12:41.383Z,101519.56
2023-01-10T08:14:14.325Z,101516.09
2023-01-10T08:15:47.259Z,101516.09
2023-01-10T08:17:19.267Z,101521.31
2023-01-10T08:18:51.006Z,101530.88
2023-01-10T08:20:22.724Z,101534.38
2023-01-10T08:21:55.021Z,101535.25
2023-01-10T08:23:26.878Z,101534.38
2023-01-10T08:24:58.805Z,101531.75
2023-01-10T08:26:30.516Z,101533.50
2023-01-10T08:28:03.692Z,101532.63
2023-01-10T08:29:35.384Z,101527.41
2023-01-10T08:31:08.103Z,101520.44
2023-01-10T08:32:39.917Z,101523.03
2023-01-10T08:34:12.971Z,101532.63
2023-01-10T08:35:44.614Z,101531.72
2023-01-10T08:37:16.412Z,101542.19
2023-01-10T08:38:48.434Z,101532.59
2023-01-10T08:40:20.117Z,101529.13
2023-01-10T08:41:52.212Z,101542.13
2023-01-10T08:43:25.302Z,101534.28
2023-01-10T08:44:58.667Z,101540.34
2023-01-10T08:46:31.484Z,101535.13
2023-01-10T08:48:03.742Z,101540.34
2023-01-10T08:49:35.667Z,101542.03
2023-01-10T08:51:09.194Z,101547.25
2023-01-10T08:52:40.859Z,101545.53
2023-01-10T08:54:12.783Z,101548.13
2023-01-10T08:55:44.498Z,101550.75
2023-01-10T08:57:16.273Z,101549.84
2023-01-10T08:58:49.285Z,101546.38
2023-01-10T09:00:22.158Z,101544.59
2023-01-10T09:01:53.978Z,101555.06
2023-01-10T09:03:25.865Z,101554.19
2023-01-10T09:04:57.580Z,101549.78
2023-01-10T09:06:29.298Z,101545.44
2023-01-10T09:08:02.178Z,101550.63
2023-01-10T09:09:33.915Z,101553.25
2023-01-10T09:11:06.639Z,101557.59
2023-01-10T09:12:56.766Z,101548.00
2023-01-10T09:14:29.649Z,101559.25
2023-01-10T09:16:01.646Z,101553.16
2023-01-10T09:17:33.454Z,101555.78
2023-01-10T09:19:05.408Z,101564.47
2023-01-10T09:20:40.214Z,101559.22
2023-01-10T09:22:11.922Z,101563.56
2023-01-10T09:23:44.488Z,101554.78
2023-01-10T09:25:16.433Z,101557.34
2023-01-10T09:26:48.087Z,101560.75
2023-01-10T09:28:20.331Z,101551.13
2023-01-10T09:29:53.347Z,101542.34
2023-01-10T09:31:25.120Z,101553.66
2023-01-10T09:32:58.059Z,101547.50
2023-01-10T09:34:29.718Z,101544.81
2023-01-10T09:36:01.546Z,101544.78
2023-01-10T09:37:34.508Z,101555.22
2023-01-10T09:39:06.432Z,101549.97
2023-01-10T09:40:54.683Z,101551.63
2023-01-10T09:42:38.663Z,101552.47
2023-01-10T09:44:19.285Z,101550.72
2023-01-10T09:46:02.546Z,101551.63
2023-01-10T09:47:43.560Z,101548.16
2023-01-10T09:49:25.061Z,101560.34
2023-01-10T09:51:14.687Z,101546.34
2023-01-10T09:52:50.374Z,101556.81
2023-01-10T09:54:26.906Z,101557.69
2023-01-10T09:56:01.133Z,101551.53
2023-01-10T09:57:32.982Z,101556.72
2023-01-10T09:59:06.376Z,101559.31
2023-01-10T10:00:43.788Z,101555.75
2023-01-10T10:02:28.184Z,101560.06
2023-01-10T10:04:07.416Z,101562.63
2023-01-10T10:05:39.079Z,101564.38
2023-01-10T10:07:14.459Z,101561.72
2023-01-10T10:08:47.836Z,101553.91
2023-01-10T10:10:24.373Z,101562.53
2023-01-10T10:12:23.909Z,101554.66
2023-01-10T10:14:01.008Z,101551.13
2023-01-10T10:15:39.316Z,101552.84
2023-01-10T10:17:27.674Z,101552.75
2023-01-10T10:19:13.523Z,101545.75
2023-01-10T10:20:57.361Z,101547.44
2023-01-10T10:22:40.461Z,101552.66
2023-01-10T10:24:25.249Z,101547.34
2023-01-10T10:26:04.337Z,101539.53
2023-01-10T10:27:49.158Z,101552.56
2023-01-10T10:29:46.437Z,101555.97
2023-01-10T10:31:29.403Z,101548.09
2023-01-10T10:33:15.884Z,101531.38
2023-01-10T10:34:50.819Z,101540.88
2023-01-10T10:36:27.086Z,101533.81
2023-01-10T10:38:05.739Z,101546.84
2023-01-10T10:39:43.105Z,101546.78
2023-01-10T10:41:18.134Z,101547.56
2023-01-10T10:42:53.278Z,101543.16
2023-01-10T10:44:37.092Z,101542.28
2023-01-10T10:46:13.710Z,101539.63
2023-01-10T10:47:50.405Z,101543.09
2023-01-10T10:49:42.096Z,101533.47
2023-01-10T10:51:18.912Z,101525.56
2023-01-10T10:52:51.261Z,101524.66
2023-01-10T10:54:23.151Z,101523.72
2023-01-10T10:55:56.252Z,101508.84
2023-01-10T10:57:29.335Z,101516.63
2023-01-10T10:59:01.259Z,101516.59
2023-01-10T11:00:33.804Z,101510.47
2023-01-10T11:02:19.427Z,101509.50
2023-01-10T11:03:54.836Z,101506.88
2023-01-10T11:05:35.485Z,101500.63
2023-01-10T11:07:11.593Z,101498.69
2023-01-10T11:08:46.119Z,101502.97
2023-01-10T11:10:35.080Z,101488.09
2023-01-10T11:12:13.589Z,101496.81
2023-01-10T11:13:48.955Z,101493.22
2023-01-10T11:15:37.908Z,101487.84
2023-01-10T11:17:22.082Z,101490.41
2023-01-10T11:19:21.447Z,101492.06
2023-01-10T11:20:58.163Z,101479.91
2023-01-10T11:22:33.697Z,101485.19
2023-01-10T11:24:06.087Z,101479.97
2023-01-10T11:25:47.411Z,101482.53
2023-01-10T11:27:23.103Z,101479.84
2023-01-10T11:29:06.884Z,101477.16
2023-01-10T11:30:38.679Z,101483.25
2023-01-10T11:32:15.071Z,101477.09
2023-01-10T11:33:48.084Z,101480.53
2023-01-10T11:35:24.148Z,101481.28
2023-01-10T11:36:59.585Z,101483.84
2023-01-10T11:38:32.122Z,101490.78
2023-01-10T11:40:24.165Z,101481.00
2023-01-10T11:41:58.251Z,101477.47
2023-01-10T11:43:33.881Z,101481.81
2023-01-10T11:45:23.745Z,101482.59
2023-01-10T11:46:57.334Z,101482.56
2023-01-10T11:49:04.449Z,101479.94
2023-01-10T11:50:36.693Z,101477.25
2023-01-10T11:52:18.382Z,101475.47
2023-01-10T11:53:56.215Z,101470.16
2023-01-10T11:55:30.741Z,101478.84
2023-01-10T11:57:06.993Z,101470.97
2023-01-10T11:58:40.271Z,101457.81
2023-01-10T12:00:13.228Z,101457.78
2023-01-10T12:01:48.268Z,101455.84
2023-01-10T12:03:29.074Z,101456.66
2023-01-10T12:05:03.122Z,101453.97
2023-01-10T12:06:35.111Z,101453.91
2023-01-10T12:08:25.138Z,101449.34
2023-01-10T12:09:57.264Z,101452.72
2023-01-10T12:11:31.128Z,101443.22
2023-01-10T12:13:15.171Z,101451.19
2023-01-10T12:14:47.811Z,101449.56
2023-01-10T12:16:22.638Z,101446.97
2023-01-10T12:17:56.928Z,101439.97
2023-01-10T12:19:29.582Z,101442.53
2023-01-10T12:21:04.043Z,101436.28
2023-01-10T12:22:39.260Z,101437.97
2023-01-10T12:24:16.195Z,101423.94
2023-01-10T12:25:50.018Z,101428.25
2023-01-10T12:27:23.935Z,101430.88
2023-01-10T12:28:59.944Z,101429.13
2023-01-10T12:30:34.703Z,101421.19
2023-01-10T12:32:13.930Z,101436.06
2023-01-10T12:33:51.374Z,101423.75
2023-01-10T12:35:27.802Z,101429.75
2023-01-10T12:37:06.055Z,101424.44
2023-01-10T12:39:01.681Z,101412.13
2023-01-10T12:40:41.208Z,101406.78
2023-01-10T12:42:45.536Z,101418.19
2023-01-10T12:44:21.751Z,101419.13
2023-01-10T12:46:01.165Z,101416.50
2023-01-10T12:47:42.811Z,101416.47
2023-01-10T12:49:21.270Z,101411.16
2023-01-10T12:51:00.832Z,101408.38
2023-01-10T12:52:45.576Z,101410.06
2023-01-10T12:54:21.610Z,101405.63
2023-01-10T12:55:58.458Z,101406.47
2023-01-10T12:57:32.614Z,101402.19
2023-01-10T12:59:11.631Z,101401.28
2023-01-10T13:00:48.577Z,101391.69
2023-01-10T13:02:25.521Z,101397.84
2023-01-10T13:04:02.679Z,101382.97
2023-01-10T13:05:34.371Z,101389.13
2023-01-10T13:07:06.595Z,101382.13
2023-01-10T13:08:41.322Z,101379.56
2023-01-10T13:10:17.463Z,101379.56
2023-01-10T13:11:56.674Z,101376.97
2023-01-10T13:13:36.502Z,101371.75
2023-01-10T13:15:16.612Z,101384.03
2023-01-10T13:16:49.899Z,101369.75
2023-01-10T13:18:25.959Z,101368.13
2023-01-10T13:20:35.625Z,101371.63
2023-01-10T13:22:21.479Z,101361.19
2023-01-10T13:23:57.995Z,101368.31
2023-01-10T13:25:34.941Z,101366.59
2023-01-10T13:27:20.262Z,101361.41
2023-01-10T13:28:57.438Z,101358.06
2023-01-10T13:30:32.716Z,101359.00
2023-01-10T13:32:20.023Z,101359.13
2023-01-10T13:33:57.237Z,101356.56
2023-01-10T13:35:41.114Z,101362.78
2023-01-10T13:37:21.513Z,101347.91
2023-01-10T13:38:56.210Z,101354.06
2023-01-10T13:40:31.202Z,101352.34
2023-01-10T13:42:51.387Z,101348.81
2023-01-10T13:44:23.174Z,101346.25
2023-01-10T13:46:28.547Z,101345.34
2023-01-10T13:48:05.958Z,101341.03
2023-01-10T13:49:43.625Z,101334.16
2023-01-10T13:51:16.759Z,101342.94
2023-01-10T13:52:49.267Z,101336.91
2023-01-10T13:54:26.115Z,101338.66
2023-01-10T13:55:58.231Z,101335.13
2023-01-10T13:57:58.024Z,101327.97
2023-01-10T14:00:20.365Z,101334.91
2023-01-10T14:02:11.963Z,101320.97
2023-01-10T14:03:50.413Z,101320.22
2023-01-10T14:05:22.441Z,101322.03
2023-01-10T14:06:56.630Z,101315.16
2023-01-10T14:08:30.433Z,101316.09
2023-01-10T14:10:05.643Z,101311.78
2023-01-10T14:11:51.709Z,101299.47
2023-01-10T14:13:24.793Z,101300.47
2023-01-10T14:15:00.350Z,101296.97
2023-01-10T14:16:34.925Z,101296.13
2023-01-10T14:18:16.739Z,101302.28
2023-01-10T14:19:58.821Z,101294.41
2023-01-10T14:21:35.655Z,101290.06
2023-01-10T14:23:17.151Z,101289.22
2023-01-10T14:24:51.691Z,101285.75
2023-01-10T14:26:29.847Z,101288.41
2023-01-10T14:28:02.550Z,101281.44
2023-01-10T14:29:38.014Z,101283.22
2023-01-10T14:31:18.703Z,101285.91
2023-01-10T14:32:52.821Z,101277.16
2023-01-10T14:34:27.739Z,101277.22
2023-01-10T14:36:03.718Z,101273.75
2023-01-10T14:37:42.343Z,101265.03
2023-01-10T14:39:15.990Z,101272.06
2023-01-10T14:40:50.719Z,101267.72
2023-01-10T14:42:25.751Z,101265.13
2023-01-10T14:44:01.432Z,101263.44
2023-01-10T14:45:43.698Z,101263.47
2023-01-10T14:47:30.021Z,101261.63
2023-01-10T14:49:01.754Z,101271.34
2023-01-10T14:50:33.747Z,101271.41
2023-01-10T14:52:12.847Z,101262.69
2023-01-10T14:53:44.997Z,101268.84
2023-01-10T14:55:21.479Z,101263.63
2023-01-10T14:56:54.162Z,101261.84
2023-01-10T14:58:26.142Z,101265.41
2023-01-10T15:00:12.688Z,101268.00
2023-01-10T15:01:48.406Z,101264.47
2023-01-10T15:03:24.455Z,101271.53
2023-01-10T15:04:58.608Z,101259.41
2023-01-10T15:06:50.109Z,101255.06
2023-01-10T15:08:23.874Z,101256.00
2023-01-10T15:09:58.593Z,101254.34
2023-01-10T15:11:31.872Z,101250.03
2023-01-10T15:13:06.233Z,101239.59
2023-01-10T15:14:38.569Z,101246.72
2023-01-10T15:16:17.195Z,101236.22
2023-01-10T15:17:52.267Z,101244.09
2023-01-10T15:19:25.573Z,101239.72
2023-01-10T15:20:58.129Z,101239.72
2023-01-10T15:22:32.566Z,101245.03
2023-01-10T15:24:24.042Z,101235.41
2023-01-10T15:25:58.843Z,101236.41
2023-01-10T15:27:31.852Z,101233.78
2023-01-10T15:29:12.840Z,101233.78
2023-01-10T15:30:45.648Z,101226.81
2023-01-10T15:32:23.731Z,101227.69
2023-01-10T15:33:58.394Z,101235.63
2023-01-10T15:35:36.498Z,101219.03
2023-01-10T15:37:21.368Z,101213.78
2023-01-10T15:38:53.999Z,101205.97
2023-01-10T15:40:30.261Z,101203.34
2023-01-10T15:42:05.959Z,101200.75
2023-01-10T15:43:37.715Z,101198.19
2023-01-10T15:45:27.691Z,101191.28
2023-01-10T15:46:59.426Z,101192.25
2023-01-10T15:48:33.801Z,101178.34
2023-01-10T15:50:22.524Z,101168.69
2023-01-10T15:51:54.623Z,101165.25
2023-01-10T15:53:57.332Z,101163.53
2023-01-10T15:55:40.330Z,101164.50
2023-01-10T15:57:24.688Z,101153.28
2023-01-10T15:58:57.814Z,101153.34
2023-01-10T16:00:30.217Z,101152.56
2023-01-10T16:02:16.757Z,101158.78
2023-01-10T16:03:51.125Z,101150.06
2023-01-10T16:05:25.665Z,101158.00
2023-01-10T16:07:06.898Z,101142.31
2023-01-10T16:08:38.889Z,101144.09
2023-01-10T16:10:19.555Z,101135.38
2023-01-10T16:12:10.883Z,101134.56
2023-01-10T16:13:42.552Z,101128.44
2023-01-10T16:15:19.012Z,101122.34
2023-01-10T16:16:50.805Z,101123.31
2023-01-10T16:18:23.113Z,101118.06
2023-01-10T16:19:54.826Z,101105.00
2023-01-10T16:21:35.634Z,101112.97
2023-01-10T16:23:17.488Z,101112.09
2023-01-10T16:24:52.374Z,101110.41
2023-01-10T16:26:24.388Z,101110.50
2023-01-10T16:27:57.003Z,101112.28
2023-01-10T16:29:28.895Z,101103.56
2023-01-10T16:31:01.756Z,101101.91
2023-01-10T16:32:34.117Z,101108.97
2023-01-10T16:34:05.935Z,101116.84
2023-01-10T16:35:39.347Z,101114.31
2023-01-10T16:37:12.388Z,101116.16
2023-01-10T16:38:44.802Z,101114.47
2023-01-10T16:40:22.175Z,101105.78
2023-01-10T16:42:12.705Z,101108.47
2023-01-10T16:43:44.380Z,101102.41
2023-01-10T16:45:16.271Z,101100.69
2023-01-10T16:46:48.147Z,101096.38
2023-01-10T16:48:20.806Z,101094.66
2023-01-10T16:49:52.476Z,101092.94
2023-01-10T16:51:26.092Z,101101.69
2023-01-10T16:53:02.031Z,101098.19
2023-01-10T16:54:36.422Z,101096.47
2023-01-10T16:56:14.799Z,101098.19
2023-01-10T16:57:49.153Z,101094.81
2023-01-10T16:59:21.393Z,101091.41
2023-01-10T17:00:53.300Z,101094.91
2023-01-10T17:02:25.202Z,101084.47
2023-01-10T17:03:57.327Z,101094.94
2023-01-10T17:05:29.134Z,101089.72
2023-01-10T17:07:01.155Z,101092.38
2023-01-10T17:08:36.745Z,101090.66
2023-01-10T17:10:09.696Z,101092.34
2023-01-10T17:11:42.296Z,101088.88
2023-01-10T17:13:20.600Z,101083.66
2023-01-10T17:14:53.240Z,101092.34
2023-01-10T17:16:24.977Z,101087.16
2023-01-10T17:17:56.827Z,101094.13
2023-01-10T17:19:28.671Z,101090.78
2023-01-10T17:21:00.656Z,101085.50
2023-01-10T17:22:32.536Z,101089.00
2023-01-10T17:24:08.875Z,101081.16
2023-01-10T17:25:41.471Z,101074.19
2023-01-10T17:27:13.485Z,101076.00
2023-01-10T17:28:46.497Z,101073.41
2023-01-10T17:30:18.719Z,101061.25
2023-01-10T17:31:50.550Z,101064.75
2023-01-10T17:33:22.959Z,101054.34
2023-01-10T17:34:54.680Z,101043.03
2023-01-10T17:36:29.717Z,101041.34
2023-01-10T17:38:01.897Z,101031.75
2023-01-10T17:39:37.649Z,101035.28
2023-01-10T17:41:10.195Z,101031.84
2023-01-10T17:42:41.894Z,101029.25
2023-01-10T17:44:13.791Z,101026.75
2023-01-10T17:45:47.886Z,101029.44
2023-01-10T17:47:19.556Z,101018.06
2023-01-10T17:48:51.309Z,101025.91
2023-01-10T17:50:23.135Z,101025.00
2023-01-10T17:51:55.079Z,101022.44
2023-01-10T17:53:27.333Z,101029.47
2023-01-10T17:55:00.441Z,101023.34
2023-01-10T17:56:32.147Z,101022.53
2023-01-10T17:58:04.239Z,101013.03
2023-01-10T17:59:36.553Z,101027.00
2023-01-10T18:01:17.146Z,101022.66
2023-01-10T18:02:49.142Z,101030.53
2023-01-10T18:04:20.886Z,101011.41
2023-01-10T18:05:54.523Z,101010.59
2023-01-10T18:07:26.243Z,101021.13
2023-01-10T18:09:00.535Z,101009.81
2023-01-10T18:10:34.133Z,101004.63
2023-01-10T18:12:07.051Z,101009.03
2023-01-10T18:13:39.236Z,101002.09